Deep River, Iowa
Current Conditions -  °F | °C
As of 7:35 PM on Monday 22 Dec 2014 (Local Time) from KGGI Reporting Station
Light Rain Light Rain  
Wind Chill: 31°   Ceiling: 200
Heat Index: 37°   Visibility: 0.75mi
Dew Point: 37°   Wind: 8mph
Humidity: 98%   Direction: 90°E
Pressure: 29.49"   Gusts: NA
Location:  41.58°N, 92.37°W
Report Text: KGGI 230135Z AUTO 09007KT 3/4SM -RA OVC002 03/03 A2949 RMK AO2 T00280025
Loading
Personal Weather Stations






























Interactive Weather Map New forecast layout! Learn more

10-Day Weather Forecast

Advertisements
Track Severe Weather on mobile